Time;durP1;ratioP1;P1;durP2;ratioP2;P2;SDS_P1;SDS_P2;PMS_P1;PMS_P2;Temp;Humidity;BMP_temperature;BMP_pressure;BME280_temperature;BME280_humidity;BME280_pressure;Samples;Min_cycle;Max_cycle;Signal;HPM_P1;HPM_P2
2023/01/09 00:00:51;;;;;;;0.63;0.50;;;8.90;92.30;;;;;;5136247;28;20031;-75
2023/01/09 00:03:17;;;;;;;1.92;0.60;;;8.90;92.00;;;;;;5135121;28;20020;-75
2023/01/09 00:05:43;;;;;;;1.27;0.47;;;8.90;91.90;;;;;;5135118;28;20051;-75
2023/01/09 00:08:09;;;;;;;2.65;0.70;;;8.90;91.90;;;;;;5101177;28;20024;-75
2023/01/09 00:10:34;;;;;;;1.10;0.60;;;8.90;91.80;;;;;;5135350;28;20024;-75
2023/01/09 00:13:00;;;;;;;0.75;0.52;;;8.90;91.80;;;;;;5135113;28;20119;-75
2023/01/09 00:15:25;;;;;;;1.98;0.75;;;8.90;91.60;;;;;;5135031;28;20096;-75
2023/01/09 00:17:51;;;;;;;0.65;0.50;;;8.90;91.60;;;;;;5117925;28;20069;-74
2023/01/09 00:20:17;;;;;;;1.42;0.50;;;8.80;91.50;;;;;;5134848;28;20012;-74
2023/01/09 00:22:42;;;;;;;0.57;0.30;;;8.70;91.30;;;;;;5100971;28;20395;-74
2023/01/09 00:25:08;;;;;;;1.13;0.68;;;8.70;91.40;;;;;;5134760;28;20030;-75
2023/01/09 00:27:35;;;;;;;0.65;0.45;;;8.70;91.30;;;;;;5135888;28;20008;-74
2023/01/09 00:30:01;;;;;;;0.95;0.50;;;8.70;91.20;;;;;;5117645;28;20031;-75
2023/01/09 00:32:27;;;;;;;0.93;0.50;;;8.60;91.10;;;;;;5134693;28;20020;-75
2023/01/09 00:34:54;;;;;;;0.40;0.20;;;8.60;91.10;;;;;;5135447;28;20073;-74
2023/01/09 00:37:20;;;;;;;2.00;0.55;;;8.60;91.00;;;;;;5135560;28;20023;-75
2023/01/09 00:39:46;;;;;;;1.23;0.50;;;8.50;91.00;;;;;;5135506;28;20024;-74
2023/01/09 00:42:21;;;;;;;0.20;0.20;;;8.50;91.10;;;;;;5135470;28;20057;-74
2023/01/09 00:45:01;;;;;;;0.47;0.30;;;8.40;91.00;;;;;;5134309;28;20051;-75
2023/01/09 00:47:38;;;;;;;0.40;0.20;;;8.30;91.10;;;;;;5134369;28;20015;-74
2023/01/09 00:50:11;;;;;;;0.50;0.30;;;8.30;91.20;;;;;;5134360;28;20035;-75
2023/01/09 00:52:38;;;;;;;1.90;0.20;;;8.30;91.20;;;;;;5134297;28;20091;-74
2023/01/09 00:55:05;;;;;;;1.20;0.32;;;8.20;91.30;;;;;;5134280;28;20083;-74
2023/01/09 00:57:31;;;;;;;1.30;0.40;;;8.20;91.30;;;;;;5134223;28;20020;-74
2023/01/09 00:59:58;;;;;;;0.82;0.20;;;8.20;91.30;;;;;;5134250;28;20054;-75
2023/01/09 01:02:24;;;;;;;0.57;0.30;;;8.20;91.30;;;;;;5117194;28;20028;-74
2023/01/09 01:07:41;;;;;;;1.05;0.22;;;8.10;91.30;;;;;;5135019;28;20058;-74
2023/01/09 01:10:15;;;;;;;0.52;0.28;;;8.10;91.40;;;;;;5117994;28;20034;-75
2023/01/09 01:12:41;;;;;;;0.88;0.43;;;8.10;91.50;;;;;;5133883;28;20026;-75
2023/01/09 01:15:09;;;;;;;0.38;0.30;;;8.00;91.60;;;;;;5134852;28;20023;-75
2023/01/09 01:17:36;;;;;;;0.70;0.22;;;8.00;91.60;;;;;;5134757;28;20028;-75
2023/01/09 01:20:04;;;;;;;1.95;0.43;;;7.90;91.90;;;;;;5133758;28;20027;-75
2023/01/09 01:22:29;;;;;;;1.25;0.43;;;7.90;91.60;;;;;;5133737;28;20118;-74
2023/01/09 01:24:55;;;;;;;1.42;0.40;;;7.80;91.70;;;;;;5116736;28;20031;-74
2023/01/09 01:27:21;;;;;;;1.15;0.40;;;7.80;91.80;;;;;;5116660;28;20027;-74
2023/01/09 01:29:46;;;;;;;1.35;0.63;;;7.80;91.90;;;;;;5133543;28;20016;-75
2023/01/09 01:32:12;;;;;;;0.95;0.45;;;7.80;91.90;;;;;;5133547;28;20046;-74
2023/01/09 01:34:38;;;;;;;2.17;0.40;;;7.80;91.80;;;;;;5133268;28;20051;-74
2023/01/09 01:37:03;;;;;;;1.67;0.40;;;7.80;91.80;;;;;;5134462;28;20042;-75
2023/01/09 01:39:29;;;;;;;2.20;0.40;;;7.80;91.70;;;;;;5134538;28;20024;-74
2023/01/09 01:41:55;;;;;;;1.30;0.73;;;7.80;91.80;;;;;;5133464;28;20038;-75
2023/01/09 01:44:59;;;;;;;2.60;0.80;;;7.80;91.80;;;;;;5133254;28;20028;-75
2023/01/09 01:47:43;;;;;;;2.55;0.40;;;7.80;91.80;;;;;;5133272;28;20016;-74
2023/01/09 01:50:20;;;;;;;1.80;0.50;;;7.70;91.80;;;;;;5134272;28;20496;-74
2023/01/09 01:52:53;;;;;;;1.98;0.47;;;7.70;91.80;;;;;;5133256;28;20065;-74
2023/01/09 01:55:19;;;;;;;2.08;0.57;;;7.70;92.00;;;;;;5133388;28;20016;-74
2023/01/09 01:57:49;;;;;;;0.40;0.35;;;7.60;92.00;;;;;;5116087;28;20016;-75
2023/01/09 02:00:19;;;;;;;0.50;0.40;;;7.60;92.00;;;;;;5134256;28;20015;-74
2023/01/09 02:02:45;;;;;;;1.10;0.43;;;7.60;91.80;;;;;;5134145;28;20087;-74
2023/01/09 02:05:11;;;;;;;1.48;0.32;;;7.50;92.10;;;;;;5133106;28;20035;-75
2023/01/09 02:07:36;;;;;;;0.45;0.30;;;7.50;92.00;;;;;;5133949;28;20041;-74
2023/01/09 02:10:03;;;;;;;3.22;0.60;;;7.50;92.00;;;;;;5098937;28;20012;-74
2023/01/09 02:12:28;;;;;;;2.20;0.40;;;7.40;92.00;;;;;;5132963;28;20031;-75
2023/01/09 02:15:10;;;;;;;2.00;0.57;;;7.40;92.00;;;;;;5133006;28;20023;-74
2023/01/09 02:17:59;;;;;;;2.15;0.50;;;7.40;92.10;;;;;;5132943;28;20027;-74
2023/01/09 02:20:37;;;;;;;2.50;0.55;;;7.30;92.20;;;;;;5134083;28;20027;-74
2023/01/09 02:23:20;;;;;;;1.20;0.43;;;7.30;92.40;;;;;;5133816;28;20083;-74
2023/01/09 02:26:07;;;;;;;0.65;0.30;;;7.30;92.40;;;;;;5134017;28;20079;-74
2023/01/09 02:29:06;;;;;;;0.85;0.30;;;7.30;92.20;;;;;;5133852;28;20030;-74
2023/01/09 02:32:06;;;;;;;0.50;0.32;;;7.20;92.30;;;;;;5133811;28;20024;-74
2023/01/09 02:34:37;;;;;;;1.60;0.50;;;7.20;92.30;;;;;;5132592;28;20059;-74
2023/01/09 02:37:34;;;;;;;2.55;0.60;;;7.10;92.50;;;;;;5132730;28;20035;-74
2023/01/09 02:40:00;;;;;;;0.65;0.35;;;7.10;92.60;;;;;;5133729;28;20088;-74
2023/01/09 02:42:26;;;;;;;2.15;0.50;;;7.10;92.70;;;;;;5133668;28;20032;-75
2023/01/09 02:44:52;;;;;;;2.00;0.70;;;7.10;92.70;;;;;;5132651;28;20032;-74
2023/01/09 02:47:18;;;;;;;1.48;0.50;;;7.10;92.80;;;;;;5133676;28;20027;-74
2023/01/09 02:49:57;;;;;;;1.15;0.40;;;7.10;92.60;;;;;;5132613;28;20115;-74
2023/01/09 02:52:26;;;;;;;2.17;0.82;;;7.10;92.50;;;;;;5133803;28;20020;-75
2023/01/09 02:55:29;;;;;;;1.65;0.30;;;7.00;92.70;;;;;;5133689;28;20028;-74
2023/01/09 02:58:32;;;;;;;1.58;0.60;;;7.10;92.80;;;;;;5133733;28;20020;-74
2023/01/09 03:01:17;;;;;;;1.60;0.55;;;7.00;92.60;;;;;;5132526;28;20031;-75
2023/01/09 03:03:49;;;;;;;1.45;0.75;;;7.00;92.80;;;;;;5132433;28;20038;-74
2023/01/09 03:06:41;;;;;;;2.58;0.73;;;6.90;92.80;;;;;;5132495;28;20055;-74
2023/01/09 03:09:13;;;;;;;0.93;0.50;;;6.90;92.90;;;;;;5122646;28;20063;-74
2023/01/09 03:11:47;;;;;;;1.13;0.50;;;7.00;93.10;;;;;;5132479;28;20261;-75
2023/01/09 03:14:16;;;;;;;2.67;0.77;;;6.90;92.80;;;;;;5132416;28;20019;-74
2023/01/09 03:16:46;;;;;;;4.05;0.85;;;6.90;92.80;;;;;;5133396;28;20083;-74
2023/01/09 03:19:19;;;;;;;2.92;0.90;;;6.90;92.70;;;;;;5133539;28;20019;-74
2023/01/09 03:21:46;;;;;;;3.40;1.00;;;6.90;92.70;;;;;;5135952;28;20035;-74
2023/01/09 03:24:12;;;;;;;2.83;0.82;;;6.80;92.80;;;;;;5136027;28;20032;-74
2023/01/09 03:26:38;;;;;;;3.25;0.93;;;6.80;92.90;;;;;;5135961;28;20039;-74
2023/01/09 03:29:04;;;;;;;2.90;1.10;;;6.80;93.00;;;;;;5119032;28;20039;-74
2023/01/09 03:31:29;;;;;;;1.70;0.80;;;6.80;92.90;;;;;;5118935;28;20031;-75
2023/01/09 03:33:55;;;;;;;4.07;1.48;;;6.80;92.80;;;;;;5135957;28;20039;-74
2023/01/09 03:36:23;;;;;;;2.45;0.93;;;6.70;92.80;;;;;;5135696;28;20063;-75
2023/01/09 03:38:48;;;;;;;5.00;1.23;;;6.80;92.80;;;;;;5136734;28;20020;-74
2023/01/09 03:41:14;;;;;;;2.03;0.80;;;6.70;93.00;;;;;;5135657;28;20096;-74
2023/01/09 03:43:40;;;;;;;1.70;0.90;;;6.70;93.10;;;;;;5135497;28;20027;-74
2023/01/09 03:46:05;;;;;;;2.38;1.20;;;6.70;93.20;;;;;;5118631;28;20024;-74
2023/01/09 03:48:31;;;;;;;2.28;1.10;;;6.70;93.20;;;;;;5135621;28;20030;-74
2023/01/09 03:50:57;;;;;;;4.10;1.40;;;6.70;93.20;;;;;;5135555;28;20028;-75
2023/01/09 03:53:25;;;;;;;9.40;1.00;;;6.70;93.30;;;;;;5135408;28;20016;-74
2023/01/09 03:55:54;;;;;;;1.55;0.98;;;6.70;93.50;;;;;;5135443;28;20030;-75
2023/01/09 03:58:20;;;;;;;2.97;0.82;;;6.70;93.50;;;;;;5136401;28;20027;-75
2023/01/09 04:00:47;;;;;;;4.85;1.30;;;6.70;93.30;;;;;;5135340;28;20039;-75
2023/01/09 04:03:14;;;;;;;2.85;1.23;;;6.70;93.40;;;;;;5136195;28;20035;-75
2023/01/09 04:05:40;;;;;;;4.45;1.10;;;6.70;93.30;;;;;;5135338;28;20030;-74
2023/01/09 04:08:06;;;;;;;2.58;1.05;;;6.70;93.30;;;;;;5135066;28;20028;-74
2023/01/09 04:10:32;;;;;;;5.90;0.88;;;6.70;93.40;;;;;;5135192;28;20044;-74
2023/01/09 04:12:57;;;;;;;2.05;1.05;;;6.60;93.60;;;;;;5118066;28;20495;-75
2023/01/09 04:15:23;;;;;;;1.52;0.75;;;6.60;93.70;;;;;;5135097;28;20024;-74
2023/01/09 04:17:49;;;;;;;5.82;1.30;;;6.60;93.60;;;;;;5135074;28;20482;-74
2023/01/09 04:20:15;;;;;;;2.85;0.88;;;6.60;93.70;;;;;;5135052;28;20043;-74
2023/01/09 04:22:41;;;;;;;2.90;0.80;;;6.60;93.70;;;;;;5134927;28;20108;-75
2023/01/09 04:25:07;;;;;;;2.33;0.90;;;6.60;93.60;;;;;;5117715;28;20023;-74
2023/01/09 04:27:32;;;;;;;2.20;1.05;;;6.60;93.70;;;;;;5134697;28;20027;-74
2023/01/09 04:29:58;;;;;;;3.30;0.88;;;6.60;93.70;;;;;;5117655;28;20023;-74
2023/01/09 04:32:26;;;;;;;1.50;0.63;;;6.60;93.70;;;;;;5134659;28;20034;-74
2023/01/09 04:34:52;;;;;;;3.80;0.95;;;6.60;93.70;;;;;;5134485;28;20047;-75
2023/01/09 04:37:18;;;;;;;1.77;0.85;;;6.60;93.70;;;;;;5135669;28;20032;-74
2023/01/09 04:39:44;;;;;;;1.85;0.77;;;6.60;93.70;;;;;;5117434;28;20462;-74
2023/01/09 04:42:10;;;;;;;1.30;0.65;;;6.60;93.80;;;;;;5134501;28;20032;-74
2023/01/09 04:44:36;;;;;;;0.90;0.57;;;6.60;93.70;;;;;;5134399;28;20039;-74
2023/01/09 04:47:02;;;;;;;2.47;0.90;;;6.60;93.70;;;;;;5134434;28;20114;-75
2023/01/09 04:49:29;;;;;;;2.60;1.23;;;6.60;93.60;;;;;;5134305;28;20039;-74
2023/01/09 04:51:54;;;;;;;2.40;1.10;;;6.60;93.70;;;;;;5100572;28;20115;-75
2023/01/09 04:54:20;;;;;;;3.53;0.77;;;6.70;93.80;;;;;;5134235;28;20032;-75
2023/01/09 04:56:46;;;;;;;0.68;0.20;;;6.70;93.90;;;;;;5134212;28;20027;-74
2023/01/09 04:59:12;;;;;;;6.75;1.10;;;6.70;93.90;;;;;;5117165;28;20024;-74
2023/01/09 05:01:38;;;;;;;2.28;0.90;;;6.80;94.00;;;;;;5134208;28;20083;-75
2023/01/09 05:04:04;;;;;;;0.82;0.50;;;6.80;94.00;;;;;;5133927;28;20054;-74
2023/01/09 05:06:30;;;;;;;1.52;0.70;;;6.80;94.10;;;;;;5134169;28;20039;-74
2023/01/09 05:08:56;;;;;;;3.42;0.82;;;6.90;94.00;;;;;;5134903;28;20069;-74
2023/01/09 05:11:24;;;;;;;3.33;1.00;;;6.90;94.00;;;;;;5099996;28;20432;-75
2023/01/09 05:13:50;;;;;;;2.75;0.95;;;7.00;93.90;;;;;;5133917;28;20505;-75
2023/01/09 05:16:15;;;;;;;2.05;0.75;;;7.00;93.80;;;;;;5134832;28;20027;-74
2023/01/09 05:18:41;;;;;;;1.65;0.73;;;7.00;93.70;;;;;;5133812;28;20039;-74
2023/01/09 05:21:07;;;;;;;4.28;0.77;;;7.00;93.70;;;;;;5133713;28;20028;-75
2023/01/09 05:23:32;;;;;;;5.00;1.52;;;7.10;93.60;;;;;;5116634;28;20032;-75
2023/01/09 05:25:58;;;;;;;3.13;0.73;;;7.10;93.50;;;;;;5134659;28;20020;-75
2023/01/09 05:28:24;;;;;;;2.78;0.73;;;7.10;93.60;;;;;;5116635;28;20031;-75
2023/01/09 05:30:49;;;;;;;3.45;0.90;;;7.10;93.60;;;;;;5116596;28;20020;-75
2023/01/09 05:33:15;;;;;;;2.33;0.50;;;7.10;93.60;;;;;;5116511;28;20024;-74
2023/01/09 05:35:40;;;;;;;3.47;0.70;;;7.10;93.60;;;;;;5133040;28;20052;-74
2023/01/09 05:38:06;;;;;;;1.80;0.68;;;7.20;93.60;;;;;;5099493;28;20030;-74
2023/01/09 05:40:32;;;;;;;2.33;0.60;;;7.20;93.50;;;;;;5116488;28;20039;-75
2023/01/09 05:42:57;;;;;;;0.70;0.32;;;7.20;93.40;;;;;;5132910;28;20114;-75
2023/01/09 05:45:23;;;;;;;1.83;0.50;;;7.20;93.30;;;;;;5099299;28;20027;-75
2023/01/09 05:47:48;;;;;;;2.78;0.70;;;7.30;93.40;;;;;;5099400;28;20077;-75
2023/01/09 05:50:14;;;;;;;0.43;0.35;;;7.30;93.30;;;;;;5133177;28;20023;-74
2023/01/09 05:52:40;;;;;;;2.38;1.15;;;7.30;93.20;;;;;;5134258;27;20034;-75
2023/01/09 05:55:06;;;;;;;4.68;0.77;;;7.30;93.20;;;;;;5116270;28;20032;-75
2023/01/09 05:57:32;;;;;;;1.30;0.57;;;7.30;93.00;;;;;;5099408;28;20044;-75
2023/01/09 05:59:58;;;;;;;2.15;0.25;;;7.40;93.00;;;;;;5133222;28;20060;-76
2023/01/09 06:02:23;;;;;;;1.48;0.70;;;7.40;93.00;;;;;;5115994;28;20025;-74
2023/01/09 06:04:49;;;;;;;4.90;0.88;;;7.40;92.90;;;;;;5133026;28;20035;-74
2023/01/09 06:07:14;;;;;;;2.67;0.40;;;7.50;92.90;;;;;;5134131;28;20030;-76
2023/01/09 06:09:40;;;;;;;0.88;0.40;;;7.50;92.90;;;;;;5115958;28;20126;-76
2023/01/09 06:12:06;;;;;;;3.22;0.80;;;7.50;92.80;;;;;;5132969;28;20047;-75
2023/01/09 06:14:32;;;;;;;2.40;0.93;;;7.50;92.70;;;;;;5132918;28;20032;-76
2023/01/09 06:16:58;;;;;;;2.53;0.57;;;7.60;92.60;;;;;;5099084;28;20103;-75
2023/01/09 06:19:23;;;;;;;3.55;0.75;;;7.50;92.60;;;;;;5132902;28;20054;-74
2023/01/09 06:21:49;;;;;;;3.65;0.63;;;7.60;92.50;;;;;;5115992;28;20036;-74
2023/01/09 06:24:14;;;;;;;2.08;0.80;;;7.60;92.50;;;;;;5115898;28;20394;-74
2023/01/09 06:26:40;;;;;;;1.70;0.80;;;7.60;92.50;;;;;;5132906;28;20038;-74
2023/01/09 06:29:06;;;;;;;3.65;0.60;;;7.60;92.40;;;;;;5133819;28;20028;-74
2023/01/09 06:31:32;;;;;;;2.70;0.77;;;7.70;92.50;;;;;;5133845;28;20020;-75
2023/01/09 06:33:58;;;;;;;3.58;1.13;;;7.70;92.60;;;;;;5132826;28;20065;-74
2023/01/09 06:36:24;;;;;;;5.80;0.77;;;7.70;92.60;;;;;;5115668;28;20048;-74
2023/01/09 06:38:49;;;;;;;4.95;1.20;;;7.70;92.40;;;;;;5132778;28;20076;-74
2023/01/09 06:41:15;;;;;;;0.90;0.50;;;7.70;92.60;;;;;;5115796;28;20054;-74
2023/01/09 06:43:41;;;;;;;1.58;0.75;;;7.70;92.60;;;;;;5132735;28;20035;-74
2023/01/09 06:46:06;;;;;;;0.65;0.40;;;7.70;92.70;;;;;;5132829;28;20024;-74
2023/01/09 06:48:32;;;;;;;1.60;0.55;;;7.70;92.70;;;;;;5133676;28;20539;-74
2023/01/09 06:50:58;;;;;;;3.25;0.88;;;7.70;92.90;;;;;;5132742;28;20032;-75
2023/01/09 06:53:24;;;;;;;5.70;1.35;;;7.60;93.20;;;;;;5132699;28;20020;-74
2023/01/09 06:55:50;;;;;;;3.17;0.70;;;7.70;93.30;;;;;;5116844;28;20514;-75
2023/01/09 06:58:15;;;;;;;3.03;0.73;;;7.70;93.30;;;;;;5119529;28;20023;-75
2023/01/09 07:00:41;;;;;;;4.40;1.20;;;7.70;93.20;;;;;;5136428;28;20505;-75
2023/01/09 07:03:08;;;;;;;1.92;0.88;;;7.70;93.20;;;;;;5119365;28;20031;-75
2023/01/09 07:05:39;;;;;;;1.77;0.75;;;7.70;93.20;;;;;;5136457;28;20020;-74
2023/01/09 07:08:05;;;;;;;9.97;1.23;;;7.70;93.10;;;;;;5137474;28;20469;-75
2023/01/09 07:10:31;;;;;;;1.75;0.38;;;7.70;93.30;;;;;;5137284;28;20024;-74
2023/01/09 07:12:57;;;;;;;1.95;0.82;;;7.70;93.10;;;;;;5137248;28;20394;-74
2023/01/09 07:15:22;;;;;;;6.72;1.00;;;7.70;93.20;;;;;;5137195;28;20046;-75
2023/01/09 07:17:51;;;;;;;3.83;0.85;;;7.80;93.10;;;;;;5136232;28;20505;-75
2023/01/09 07:20:17;;;;;;;3.30;0.75;;;7.80;93.10;;;;;;5137129;28;20031;-75
2023/01/09 07:22:44;;;;;;;4.85;0.90;;;7.80;93.20;;;;;;5136126;28;20409;-74
2023/01/09 07:25:09;;;;;;;4.22;0.85;;;7.80;93.10;;;;;;5135932;28;20023;-74
2023/01/09 07:27:35;;;;;;;4.75;0.73;;;7.80;92.90;;;;;;5136097;28;20027;-75
2023/01/09 07:30:03;;;;;;;1.70;0.73;;;7.80;92.70;;;;;;5118871;28;20093;-74
2023/01/09 07:32:29;;;;;;;1.33;0.57;;;7.80;93.00;;;;;;5137105;28;20088;-74
2023/01/09 07:34:55;;;;;;;3.63;0.65;;;7.80;92.90;;;;;;5118660;28;20043;-74
2023/01/09 07:37:20;;;;;;;3.88;1.23;;;7.80;93.10;;;;;;5136828;28;20031;-74
2023/01/09 07:39:46;;;;;;;4.82;0.98;;;7.80;93.30;;;;;;5136723;28;20055;-74
2023/01/09 07:42:12;;;;;;;6.72;0.98;;;7.80;93.20;;;;;;5118579;28;20024;-74
2023/01/09 07:44:38;;;;;;;2.50;1.20;;;7.80;93.10;;;;;;5136609;28;20020;-74
2023/01/09 07:47:03;;;;;;;4.50;1.13;;;7.90;93.20;;;;;;5135717;28;20023;-74
2023/01/09 07:49:29;;;;;;;3.47;1.00;;;7.90;93.20;;;;;;5118480;28;20035;-75
2023/01/09 07:51:54;;;;;;;3.35;1.10;;;7.90;93.30;;;;;;5118574;28;20032;-74
2023/01/09 07:54:21;;;;;;;2.13;0.88;;;7.90;93.40;;;;;;5135488;28;20038;-75
2023/01/09 07:56:46;;;;;;;1.50;0.95;;;7.90;93.40;;;;;;5136397;28;20020;-75
2023/01/09 07:59:12;;;;;;;8.35;1.48;;;7.90;93.40;;;;;;5135448;28;20080;-75
2023/01/09 08:01:38;;;;;;;2.40;0.93;;;7.90;93.50;;;;;;5135395;28;20028;-75
2023/01/09 08:04:03;;;;;;;2.55;0.85;;;7.90;93.40;;;;;;5135192;28;20058;-74
2023/01/09 08:06:30;;;;;;;3.17;0.57;;;7.90;93.40;;;;;;5134709;28;20020;-75
2023/01/09 08:08:56;;;;;;;1.67;0.80;;;8.00;93.30;;;;;;5135141;28;20031;-75
2023/01/09 08:11:22;;;;;;;3.50;1.02;;;8.00;93.40;;;;;;5136099;28;20012;-74
2023/01/09 08:13:48;;;;;;;5.60;1.40;;;8.00;93.60;;;;;;5135008;28;20107;-75
2023/01/09 08:16:13;;;;;;;2.35;0.80;;;8.00;94.10;;;;;;5117869;28;20066;-75
2023/01/09 08:18:39;;;;;;;6.32;1.13;;;8.00;93.50;;;;;;5134995;28;20031;-75
2023/01/09 08:21:05;;;;;;;3.05;0.55;;;8.00;93.40;;;;;;5135017;28;20027;-75
2023/01/09 08:23:30;;;;;;;4.05;1.05;;;8.00;93.50;;;;;;5117811;28;20100;-75
2023/01/09 08:25:56;;;;;;;5.75;1.17;;;8.00;93.40;;;;;;5117889;28;20092;-75
2023/01/09 08:28:22;;;;;;;5.70;1.38;;;8.00;93.20;;;;;;5134852;28;20042;-75
2023/01/09 08:30:47;;;;;;;3.85;1.25;;;8.00;93.30;;;;;;5117673;28;20019;-75
2023/01/09 08:33:13;;;;;;;5.40;1.00;;;8.10;93.20;;;;;;5117642;28;20028;-75
2023/01/09 08:35:39;;;;;;;3.58;1.00;;;8.00;93.10;;;;;;5135477;28;20051;-75
2023/01/09 08:38:04;;;;;;;2.85;0.68;;;8.10;93.00;;;;;;5117705;28;20016;-75
2023/01/09 08:40:30;;;;;;;5.45;1.00;;;8.10;92.70;;;;;;5117624;28;20444;-75
2023/01/09 08:48:24;;;;;;;7.05;1.50;;;8.10;92.70;;;;;;5120274;28;20064;-75
2023/01/09 08:50:51;;;;;;;3.50;1.13;;;8.20;92.90;;;;;;5117343;28;20039;-75
2023/01/09 08:53:16;;;;;;;5.20;1.60;;;8.20;92.90;;;;;;5134373;28;20031;-75
2023/01/09 08:55:42;;;;;;;2.30;1.17;;;8.20;92.90;;;;;;5134223;28;20019;-75
2023/01/09 08:58:08;;;;;;;3.28;1.17;;;8.30;92.90;;;;;;5116890;28;20019;-75
2023/01/09 09:00:33;;;;;;;3.90;1.25;;;8.20;92.70;;;;;;5133967;28;20030;-75
2023/01/09 09:03:00;;;;;;;4.65;1.40;;;8.30;92.90;;;;;;5135032;28;20046;-75
2023/01/09 09:05:28;;;;;;;2.20;1.25;;;8.30;92.90;;;;;;5133969;28;20043;-75
2023/01/09 09:07:54;;;;;;;6.65;1.50;;;8.30;92.90;;;;;;5134881;28;20019;-74
2023/01/09 09:10:24;;;;;;;3.05;1.25;;;8.40;92.90;;;;;;5134880;28;20049;-75
2023/01/09 09:12:52;;;;;;;5.35;1.50;;;8.40;92.70;;;;;;5117471;28;20019;-75
2023/01/09 09:15:23;;;;;;;2.95;1.52;;;8.40;93.00;;;;;;5133842;28;20049;-75
2023/01/09 09:18:00;;;;;;;2.40;1.23;;;8.40;93.00;;;;;;5101123;28;20023;-75
2023/01/09 09:20:30;;;;;;;4.47;1.50;;;8.40;93.00;;;;;;5133905;28;20026;-75
2023/01/09 09:22:55;;;;;;;2.55;1.02;;;8.40;93.20;;;;;;5133731;28;20023;-74
2023/01/09 09:25:21;;;;;;;6.03;1.88;;;8.40;93.20;;;;;;5133545;28;20109;-75
2023/01/09 09:27:48;;;;;;;2.33;1.20;;;8.30;93.30;;;;;;5133837;28;20076;-75
2023/01/09 09:30:16;;;;;;;5.50;1.25;;;8.40;93.40;;;;;;5133579;28;20024;-75
2023/01/09 09:32:42;;;;;;;4.60;1.63;;;8.40;93.50;;;;;;5133575;28;20096;-75
2023/01/09 09:35:08;;;;;;;4.78;1.58;;;8.40;93.60;;;;;;5134204;28;20039;-75
2023/01/09 09:37:35;;;;;;;3.78;1.25;;;8.40;93.60;;;;;;5133529;28;20038;-75
2023/01/09 09:40:01;;;;;;;4.13;1.40;;;8.40;93.80;;;;;;5134465;28;20032;-74
2023/01/09 09:45:40;;;;;;;4.28;1.67;;;8.40;93.70;;;;;;5134357;28;20065;-74
2023/01/09 09:48:29;;;;;;;4.25;1.70;;;8.40;93.90;;;;;;5133313;28;20023;-74
2023/01/09 09:51:20;;;;;;;4.32;1.60;;;8.40;93.80;;;;;;5134271;28;20016;-75
2023/01/09 09:54:09;;;;;;;4.70;1.10;;;8.30;93.70;;;;;;5134453;28;20051;-75
2023/01/09 09:56:49;;;;;;;4.53;1.60;;;8.30;93.70;;;;;;5134235;28;20019;-76
2023/01/09 09:59:18;;;;;;;5.25;1.70;;;8.30;93.80;;;;;;5133158;28;20019;-74
2023/01/09 10:02:08;;;;;;;3.35;1.80;;;8.30;93.80;;;;;;5133111;28;20024;-74
2023/01/09 10:04:38;;;;;;;2.53;1.05;;;8.30;93.90;;;;;;5132950;28;20049;-74
2023/01/09 10:07:08;;;;;;;3.63;1.60;;;8.30;93.90;;;;;;5134119;28;20052;-74
2023/01/09 10:09:59;;;;;;;2.30;1.23;;;8.30;93.90;;;;;;5134095;28;20025;-74
2023/01/09 10:12:32;;;;;;;5.75;1.90;;;8.30;93.90;;;;;;5134086;28;20073;-73
2023/01/09 10:15:01;;;;;;;6.95;2.08;;;8.30;94.00;;;;;;5133216;28;20473;-73
2023/01/09 10:17:29;;;;;;;3.92;1.50;;;8.40;94.00;;;;;;5133987;28;20077;-74
2023/01/09 10:20:10;;;;;;;3.88;2.05;;;8.40;93.70;;;;;;5132937;28;20028;-73
2023/01/09 10:23:03;;;;;;;3.03;1.73;;;8.50;94.00;;;;;;5132880;28;20087;-74
2023/01/09 10:26:00;;;;;;;3.03;1.85;;;8.50;94.00;;;;;;5134006;28;20023;-73
2023/01/09 10:28:53;;;;;;;6.90;2.30;;;8.50;93.50;;;;;;5132956;28;20020;-74
2023/01/09 10:31:38;;;;;;;4.95;1.95;;;8.60;93.70;;;;;;5136858;28;20030;-74
2023/01/09 10:34:28;;;;;;;5.22;2.08;;;8.60;93.60;;;;;;5137029;28;20028;-74
2023/01/09 10:37:14;;;;;;;4.07;1.77;;;8.60;93.30;;;;;;5137827;28;20055;-74
2023/01/09 10:40:04;;;;;;;6.88;2.45;;;8.60;93.10;;;;;;5137020;28;20062;-74
2023/01/09 10:42:47;;;;;;;3.17;2.03;;;8.60;93.10;;;;;;5138086;28;20023;-74
2023/01/09 10:45:22;;;;;;;6.70;2.13;;;8.60;93.10;;;;;;5136808;28;20106;-74
2023/01/09 10:47:48;;;;;;;5.28;2.47;;;8.60;93.30;;;;;;5136962;28;20016;-74
2023/01/09 10:50:27;;;;;;;3.28;1.98;;;8.50;93.10;;;;;;5137691;28;20055;-74
2023/01/09 10:52:55;;;;;;;4.45;2.60;;;8.60;93.30;;;;;;5136688;28;20023;-74
2023/01/09 10:55:40;;;;;;;5.55;2.28;;;8.70;93.10;;;;;;5137645;28;20056;-74
2023/01/09 10:58:15;;;;;;;6.40;2.42;;;8.80;92.60;;;;;;5136645;28;20089;-75
2023/01/09 11:00:41;;;;;;;4.95;2.38;;;8.90;92.20;;;;;;5137555;28;20027;-75
2023/01/09 11:03:21;;;;;;;5.47;2.45;;;9.00;92.10;;;;;;5136540;28;20032;-75
2023/01/09 11:05:52;;;;;;;7.30;2.80;;;8.90;91.60;;;;;;5137473;27;20050;-75
2023/01/09 11:08:20;;;;;;;6.38;2.38;;;8.90;91.40;;;;;;5136329;28;20048;-76
2023/01/09 11:10:59;;;;;;;21.13;4.78;;;9.00;91.60;;;;;;5137269;28;20023;-76
2023/01/09 11:13:28;;;;;;;10.00;2.92;;;9.00;91.70;;;;;;5136602;28;20024;-76
2023/01/09 11:16:05;;;;;;;5.90;2.85;;;9.00;91.60;;;;;;5137263;28;20037;-76
2023/01/09 11:18:33;;;;;;;11.82;4.03;;;8.90;91.40;;;;;;5137179;28;20083;-76
2023/01/09 11:21:23;;;;;;;75.88;21.02;;;8.90;91.70;;;;;;5137147;28;20016;-77
2023/01/09 11:23:49;;;;;;;8.00;3.05;;;8.90;91.80;;;;;;5136110;28;20039;-76
2023/01/09 11:26:41;;;;;;;5.32;2.47;;;8.90;91.90;;;;;;5137023;28;20023;-77
2023/01/09 11:29:14;;;;;;;6.65;2.70;;;8.90;92.00;;;;;;5131453;28;20043;-77
2023/01/09 11:31:42;;;;;;;6.78;3.08;;;9.00;92.20;;;;;;5137041;28;20043;-77
2023/01/09 11:34:23;;;;;;;6.95;3.03;;;9.00;92.10;;;;;;5135986;28;20389;-77
2023/01/09 11:36:51;;;;;;;8.43;2.92;;;9.00;92.00;;;;;;5136764;28;20044;-76
2023/01/09 11:39:25;;;;;;;5.68;2.55;;;9.10;92.00;;;;;;5118701;28;20034;-77
2023/01/09 11:41:59;;;;;;;9.57;3.08;;;9.10;92.00;;;;;;5134843;28;20028;-77
2023/01/09 11:44:26;;;;;;;5.55;2.70;;;9.10;91.70;;;;;;5135699;28;20049;-76
2023/01/09 11:46:52;;;;;;;6.80;2.88;;;9.10;92.40;;;;;;5101851;28;20024;-76
2023/01/09 11:49:29;;;;;;;8.68;2.78;;;9.10;91.70;;;;;;5136559;28;20022;-76
2023/01/09 11:52:15;;;;;;;5.55;3.20;;;9.10;91.80;;;;;;5136581;28;20028;-76
2023/01/09 11:54:44;;;;;;;7.70;3.08;;;9.20;92.00;;;;;;5135512;28;20050;-76
2023/01/09 11:57:11;;;;;;;5.57;2.63;;;9.20;91.50;;;;;;5136417;28;20057;-75
2023/01/09 11:59:37;;;;;;;12.32;3.70;;;9.20;91.60;;;;;;5136516;28;20020;-76
2023/01/09 12:02:40;;;;;;;9.95;3.70;;;9.30;91.30;;;;;;5135412;28;20034;-76
2023/01/09 12:05:21;;;;;;;9.48;3.80;;;9.40;91.60;;;;;;5135148;28;20034;-76
2023/01/09 12:08:08;;;;;;;7.15;3.10;;;9.50;90.80;;;;;;5136374;28;20083;-76
2023/01/09 12:11:22;;;;;;;8.77;3.03;;;9.50;90.90;;;;;;5136167;28;20031;-76
2023/01/09 12:14:06;;;;;;;6.53;3.03;;;9.60;90.80;;;;;;5112995;28;20072;-76
2023/01/09 12:16:52;;;;;;;7.18;3.00;;;9.60;90.70;;;;;;5135044;28;20104;-76
2023/01/09 12:19:36;;;;;;;8.75;2.33;;;9.60;90.40;;;;;;5136041;28;20020;-76
2023/01/09 12:22:43;;;;;;;7.22;2.80;;;9.50;90.30;;;;;;5136027;28;20031;-75
2023/01/09 12:25:46;;;;;;;6.70;3.00;;;9.50;90.50;;;;;;5124779;28;20091;-76
2023/01/09 12:28:30;;;;;;;7.32;3.03;;;9.60;90.30;;;;;;5134767;28;20077;-76
2023/01/09 12:31:19;;;;;;;5.38;2.25;;;9.60;90.10;;;;;;5134746;28;20034;-75
2023/01/09 12:34:29;;;;;;;8.02;3.00;;;9.60;90.20;;;;;;5134758;28;20024;-76
2023/01/09 12:37:32;;;;;;;8.32;3.28;;;9.60;90.50;;;;;;5052890;28;20057;-76
2023/01/09 12:40:10;;;;;;;;;;;9.60;90.60;;;;;;5152317;27;20135;-76
2023/01/09 12:43:07;;;;;;;9.40;3.47;;;9.50;90.60;;;;;;5134485;28;19957;-76
2023/01/09 12:45:54;;;;;;;6.10;3.63;;;9.50;91.00;;;;;;5134435;28;20057;-77
2023/01/09 12:48:35;;;;;;;8.65;3.85;;;9.50;91.00;;;;;;5135461;28;20020;-77
2023/01/09 12:51:17;;;;;;;8.13;3.20;;;9.50;90.90;;;;;;5134415;28;20077;-75
2023/01/09 12:54:05;;;;;;;14.98;4.10;;;9.40;91.00;;;;;;5134351;28;20019;-75
2023/01/09 12:56:42;;;;;;;8.60;3.75;;;9.40;91.00;;;;;;5135485;28;20023;-76
2023/01/09 12:59:29;;;;;;;10.48;4.35;;;9.40;91.10;;;;;;5134296;28;20023;-76
2023/01/09 13:02:02;;;;;;;7.97;4.03;;;9.60;91.00;;;;;;5134186;28;20023;-75
2023/01/09 13:04:33;;;;;;;4.88;2.97;;;9.60;90.60;;;;;;5135080;28;20030;-75
2023/01/09 13:07:10;;;;;;;8.32;3.90;;;9.60;90.60;;;;;;5135120;28;20046;-75
2023/01/09 13:09:43;;;;;;;7.32;3.90;;;9.60;90.50;;;;;;5135032;28;20016;-76
2023/01/09 13:12:17;;;;;;;7.47;2.97;;;9.60;90.60;;;;;;5135130;28;20036;-76
2023/01/09 13:14:45;;;;;;;8.05;3.38;;;9.70;90.40;;;;;;5134945;28;20026;-76
2023/01/09 13:17:45;;;;;;;6.63;2.90;;;9.50;90.30;;;;;;5134805;28;20088;-75
2023/01/09 13:20:45;;;;;;;8.07;2.88;;;9.50;90.50;;;;;;5062435;28;20033;-76
2023/01/09 13:23:33;;;;;;;8.10;2.80;;;9.50;90.60;;;;;;5130587;28;20046;-75
2023/01/09 13:26:05;;;;;;;8.68;3.33;;;9.50;90.80;;;;;;5134766;28;20046;-76
2023/01/09 13:28:37;;;;;;;7.63;3.25;;;9.50;91.00;;;;;;5134758;28;20024;-77
2023/01/09 13:31:29;;;;;;;7.72;3.50;;;9.50;91.00;;;;;;5134677;28;20019;-76